Time,TemperatureF,DewpointF,PressureIn,WindDirection,WindDirectionDegrees,WindSpeedMPH,WindSpeedGustMPH,Humidity,HourlyPrecipIn,Conditions,Clouds,dailyrainin,SolarRadiationWatts/m^2,SoftwareType,DateUTC
2013-01-13 00:00:00,6.5,-0.3,30.32,East,90,3.0,6.0,73,0.00,,,0.00,0,WeatherCatV1.10B1784,2013-01-13 08:00:00,
2013-01-13 00:05:00,6.5,-0.6,30.32,ENE,68,2.0,4.0,72,0.00,,,0.00,0,WeatherCatV1.10B1784,2013-01-13 08:05:00,
2013-01-13 00:10:00,6.7,-0.7,30.32,East,90,2.0,4.0,71,0.00,,,0.00,0,WeatherCatV1.10B1784,2013-01-13 08:10:00,
2013-01-13 00:15:00,6.9,-0.5,30.32,ESE,112,3.0,5.0,71,0.00,,,0.00,0,WeatherCatV1.10B1784,2013-01-13 08:15:00,
2013-01-13 00:20:00,7.0,-0.4,30.32,ESE,112,2.0,5.0,71,0.00,,,0.00,0,WeatherCatV1.10B1784,2013-01-13 08:20:00,
2013-01-13 00:25:00,7.2,-0.5,30.32,ESE,112,4.0,9.0,70,0.00,,,0.00,0,WeatherCatV1.10B1784,2013-01-13 08:25:00,
2013-01-13 00:30:00,7.2,-0.8,30.32,ESE,112,3.0,5.0,69,0.00,,,0.00,0,WeatherCatV1.10B1784,2013-01-13 08:30:00,
2013-01-13 00:35:00,7.4,-1.2,30.32,ESE,112,2.0,4.0,67,0.00,,,0.00,0,WeatherCatV1.10B1784,2013-01-13 08:35:00,
2013-01-13 00:40:00,7.2,-1.4,30.32,ESE,112,2.0,3.0,67,0.00,,,0.00,0,WeatherCatV1.10B1784,2013-01-13 08:40:00,
2013-01-13 00:45:00,7.2,-1.4,30.32,ESE,112,2.0,4.0,67,0.00,,,0.00,0,WeatherCatV1.10B1784,2013-01-13 08:45:00,
2013-01-13 00:50:00,7.9,-0.1,30.33,ESE,112,5.0,5.0,69,0.00,,,0.00,0,WeatherCatV1.10B1784,2013-01-13 08:50:00,
2013-01-13 00:55:00,8.4,0.1,30.33,ESE,112,6.0,6.0,68,0.00,,,0.00,0,WeatherCatV1.10B1784,2013-01-13 08:55:00,
2013-01-13 01:00:00,8.8,0.1,30.33,ESE,112,5.0,7.0,67,0.00,,,0.00,0,WeatherCatV1.10B1784,2013-01-13 09:00:00,
2013-01-13 01:05:00,9.2,0.5,30.32,ESE,112,5.0,6.0,67,0.00,,,0.00,0,WeatherCatV1.10B1784,2013-01-13 09:05:00,
2013-01-13 01:10:00,9.3,0.3,30.32,ESE,112,5.0,6.0,66,0.00,,,0.00,0,WeatherCatV1.10B1784,2013-01-13 09:10:00,
2013-01-13 01:15:00,9.3,0.6,30.32,ESE,112,4.0,6.0,67,0.00,,,0.00,0,WeatherCatV1.10B1784,2013-01-13 09:15:00,
2013-01-13 01:20:00,9.3,0.6,30.30,ESE,112,5.0,5.0,67,0.00,,,0.00,0,WeatherCatV1.10B1784,2013-01-13 09:20:00,
2013-01-13 01:25:00,9.3,0.3,30.30,ESE,112,5.0,5.0,66,0.00,,,0.00,0,WeatherCatV1.10B1784,2013-01-13 09:25:00,
2013-01-13 01:30:00,8.6,-1.0,30.32,SE,135,4.0,6.0,64,0.00,,,0.00,0,WeatherCatV1.10B1784,2013-01-13 09:30:00,
2013-01-13 01:35:00,8.1,-1.2,30.32,SSE,158,5.0,7.0,65,0.00,,,0.00,0,WeatherCatV1.10B1784,2013-01-13 09:35:00,
2013-01-13 01:40:00,7.7,-1.6,30.32,SSE,158,6.0,7.0,65,0.00,,,0.00,0,WeatherCatV1.10B1784,2013-01-13 09:40:00,
2013-01-13 01:45:00,7.4,-1.5,30.34,SSE,158,4.0,5.0,66,0.00,,,0.00,0,WeatherCatV1.10B1784,2013-01-13 09:45:00,
2013-01-13 01:50:00,7.4,-0.9,30.34,SSE,158,3.0,4.0,68,0.00,,,0.00,0,WeatherCatV1.10B1784,2013-01-13 09:50:00,
2013-01-13 01:55:00,7.4,-0.9,30.34,SSE,158,4.0,5.0,68,0.00,,,0.00,0,WeatherCatV1.10B1784,2013-01-13 09:55:00,
2013-01-13 02:00:00,7.6,-1.0,30.34,SSE,158,3.0,4.0,67,0.00,,,0.00,0,WeatherCatV1.10B1784,2013-01-13 10:00:00,
2013-01-13 02:05:00,7.9,-0.1,30.34,SSE,158,2.0,3.0,69,0.00,,,0.00,0,WeatherCatV1.10B1784,2013-01-13 10:05:00,
2013-01-13 02:10:00,7.9,-0.7,30.34,SE,135,1.0,2.0,67,0.00,,,0.00,0,WeatherCatV1.10B1784,2013-01-13 10:10:00,
2013-01-13 02:15:00,8.1,-0.9,30.38,ESE,112,0.0,1.0,66,0.00,,,0.00,0,WeatherCatV1.10B1784,2013-01-13 10:15:00,
2013-01-13 02:20:00,8.3,-1.7,30.38,ESE,112,0.0,1.0,63,0.00,,,0.00,0,WeatherCatV1.10B1784,2013-01-13 10:20:00,
2013-01-13 02:25:00,8.3,-3.0,30.38,ESE,112,1.0,2.0,59,0.00,,,0.00,0,WeatherCatV1.10B1784,2013-01-13 10:25:00,
2013-01-13 02:30:00,8.3,-3.4,30.38,ESE,112,3.0,3.0,58,0.00,,,0.00,0,WeatherCatV1.10B1784,2013-01-13 10:30:00,
2013-01-13 02:35:00,9.2,-4.0,30.37,ESE,112,4.0,5.0,54,0.00,,,0.00,0,WeatherCatV1.10B1784,2013-01-13 10:35:00,
2013-01-13 02:40:00,9.9,-3.0,30.37,ESE,112,4.0,5.0,55,0.00,,,0.00,0,WeatherCatV1.10B1784,2013-01-13 10:40:00,
2013-01-13 02:45:00,10.4,-2.5,30.37,ESE,112,4.0,5.0,55,0.00,,,0.00,0,WeatherCatV1.10B1784,2013-01-13 10:45:00,
2013-01-13 02:50:00,10.7,-3.8,30.34,ESE,112,4.0,6.0,51,0.00,,,0.00,0,WeatherCatV1.10B1784,2013-01-13 10:50:00,
2013-01-13 02:55:00,10.9,-3.2,30.34,ESE,112,4.0,5.0,52,0.00,,,0.00,0,WeatherCatV1.10B1784,2013-01-13 10:55:00,
2013-01-13 03:00:00,10.4,-4.9,30.34,ESE,112,4.0,6.0,49,0.00,,,0.00,0,WeatherCatV1.10B1784,2013-01-13 11:00:00,
2013-01-13 03:05:00,10.5,-4.4,30.34,ESE,112,6.0,7.0,50,0.00,,,0.00,0,WeatherCatV1.10B1784,2013-01-13 11:05:00,
2013-01-13 03:10:00,10.7,-5.1,30.34,SE,135,6.0,8.0,48,0.00,,,0.00,0,WeatherCatV1.10B1784,2013-01-13 11:10:00,
2013-01-13 03:15:00,10.7,-5.5,30.34,SE,135,6.0,7.0,47,0.00,,,0.00,0,WeatherCatV1.10B1784,2013-01-13 11:15:00,
2013-01-13 03:20:00,10.7,-5.1,30.33,SE,135,5.0,7.0,48,0.00,,,0.00,0,WeatherCatV1.10B1784,2013-01-13 11:20:00,
2013-01-13 03:25:00,10.0,-5.3,30.33,ESE,112,3.0,5.0,49,0.00,,,0.00,0,WeatherCatV1.10B1784,2013-01-13 11:25:00,
2013-01-13 03:30:00,9.2,-6.0,30.34,ESE,112,3.0,4.0,49,0.00,,,0.00,0,WeatherCatV1.10B1784,2013-01-13 11:30:00,
2013-01-13 03:35:00,9.7,-3.6,30.34,ESE,112,4.0,5.0,54,0.00,,,0.00,0,WeatherCatV1.10B1784,2013-01-13 11:35:00,
2013-01-13 03:40:00,9.2,-5.6,30.34,ESE,112,4.0,5.0,50,0.00,,,0.00,0,WeatherCatV1.10B1784,2013-01-13 11:40:00,
2013-01-13 03:45:00,8.6,-5.4,30.32,ESE,112,3.0,4.0,52,0.00,,,0.00,0,WeatherCatV1.10B1784,2013-01-13 11:45:00,
2013-01-13 03:50:00,8.3,-5.3,30.32,ESE,112,4.0,6.0,53,0.00,,,0.00,0,WeatherCatV1.10B1784,2013-01-13 11:50:00,
2013-01-13 03:55:00,8.1,-5.5,30.32,ESE,112,3.0,5.0,53,0.00,,,0.00,0,WeatherCatV1.10B1784,2013-01-13 11:55:00,
2013-01-13 04:00:00,7.9,-5.2,30.33,ESE,112,3.0,5.0,54,0.00,,,0.00,0,WeatherCatV1.10B1784,2013-01-13 12:00:00,
2013-01-13 04:05:00,7.9,-6.0,30.33,ESE,112,2.0,4.0,52,0.00,,,0.00,0,WeatherCatV1.10B1784,2013-01-13 12:05:00,
2013-01-13 04:10:00,7.7,-5.8,30.33,ESE,112,2.0,3.0,53,0.00,,,0.00,0,WeatherCatV1.10B1784,2013-01-13 12:10:00,
2013-01-13 04:15:00,7.7,-6.2,30.33,ESE,112,3.0,5.0,52,0.00,,,0.00,0,WeatherCatV1.10B1784,2013-01-13 12:15:00,
2013-01-13 04:20:00,7.9,-6.4,30.33,ESE,112,2.0,4.0,51,0.00,,,0.00,0,WeatherCatV1.10B1784,2013-01-13 12:20:00,
2013-01-13 04:25:00,7.9,-6.0,30.33,ESE,112,0.0,1.0,52,0.00,,,0.00,0,WeatherCatV1.10B1784,2013-01-13 12:25:00,
2013-01-13 04:30:00,7.9,-6.4,30.33,ESE,112,2.0,5.0,51,0.00,,,0.00,0,WeatherCatV1.10B1784,2013-01-13 12:30:00,
2013-01-13 04:35:00,7.9,-8.1,30.34,SE,135,2.0,2.0,47,0.00,,,0.00,0,WeatherCatV1.10B1784,2013-01-13 12:35:00,
2013-01-13 04:40:00,8.1,-9.7,30.34,SE,135,0.0,0.0,43,0.00,,,0.00,0,WeatherCatV1.10B1784,2013-01-13 12:40:00,
2013-01-13 04:45:00,8.3,-10.0,30.34,SE,135,0.0,0.0,42,0.00,,,0.00,0,WeatherCatV1.10B1784,2013-01-13 12:45:00,
2013-01-13 04:50:00,8.4,-9.4,30.35,North,0,3.0,5.0,43,0.00,,,0.00,0,WeatherCatV1.10B1784,2013-01-13 12:50:00,
2013-01-13 04:55:00,8.6,-11.7,30.35,NNW,338,2.0,3.0,38,0.00,,,0.00,0,WeatherCatV1.10B1784,2013-01-13 12:55:00,
2013-01-13 05:00:00,9.0,-13.6,30.35,NW,315,6.0,7.0,34,0.00,,,0.00,0,WeatherCatV1.10B1784,2013-01-13 13:00:00,
2013-01-13 05:05:00,9.3,-14.5,30.38,WNW,292,6.0,7.0,32,0.00,,,0.00,0,WeatherCatV1.10B1784,2013-01-13 13:05:00,
2013-01-13 05:10:00,9.5,-13.7,30.38,West,270,4.0,5.0,33,0.00,,,0.00,0,WeatherCatV1.10B1784,2013-01-13 13:10:00,
2013-01-13 05:15:00,9.5,-13.7,30.38,West,270,2.0,3.0,33,0.00,,,0.00,0,WeatherCatV1.10B1784,2013-01-13 13:15:00,
2013-01-13 05:20:00,9.5,-13.7,30.38,West,270,4.0,5.0,33,0.00,,,0.00,0,WeatherCatV1.10B1784,2013-01-13 13:20:00,
2013-01-13 05:25:00,9.7,-14.2,30.38,West,270,3.0,5.0,32,0.00,,,0.00,0,WeatherCatV1.10B1784,2013-01-13 13:25:00,
2013-01-13 05:30:00,9.9,-13.4,30.38,West,270,2.0,3.0,33,0.00,,,0.00,0,WeatherCatV1.10B1784,2013-01-13 13:30:00,
2013-01-13 05:35:00,9.9,-10.0,30.36,West,270,0.0,0.0,39,0.00,,,0.00,0,WeatherCatV1.10B1784,2013-01-13 13:35:00,
2013-01-13 05:40:00,10.0,-7.5,30.36,West,270,1.0,2.0,44,0.00,,,0.00,0,WeatherCatV1.10B1784,2013-01-13 13:40:00,
2013-01-13 05:45:00,10.0,-8.0,30.36,West,270,2.0,5.0,43,0.00,,,0.00,0,WeatherCatV1.10B1784,2013-01-13 13:45:00,
2013-01-13 05:50:00,9.9,-8.1,30.36,SW,225,0.0,1.0,43,0.00,,,0.00,0,WeatherCatV1.10B1784,2013-01-13 13:50:00,
2013-01-13 05:55:00,9.7,-6.4,30.36,SW,225,0.0,0.0,47,0.00,,,0.00,0,WeatherCatV1.10B1784,2013-01-13 13:55:00,
2013-01-13 06:00:00,9.9,-7.2,30.36,SW,225,2.0,3.0,45,0.00,,,0.00,0,WeatherCatV1.10B1784,2013-01-13 14:00:00,
2013-01-13 06:05:00,10.0,-7.5,30.37,WSW,248,3.0,4.0,44,0.00,,,0.00,0,WeatherCatV1.10B1784,2013-01-13 14:05:00,
2013-01-13 06:10:00,10.4,-6.2,30.37,West,270,2.0,3.0,46,0.00,,,0.00,0,WeatherCatV1.10B1784,2013-01-13 14:10:00,
2013-01-13 06:15:00,10.5,-4.8,30.37,West,270,4.0,5.0,49,0.00,,,0.00,0,WeatherCatV1.10B1784,2013-01-13 14:15:00,
2013-01-13 06:20:00,10.5,-3.6,30.38,West,270,2.0,3.0,52,0.00,,,0.00,0,WeatherCatV1.10B1784,2013-01-13 14:20:00,
2013-01-13 06:25:00,10.4,-2.5,30.38,WNW,292,5.0,7.0,55,0.00,,,0.00,0,WeatherCatV1.10B1784,2013-01-13 14:25:00,
2013-01-13 06:30:00,10.2,-0.9,30.37,WNW,292,7.0,9.0,60,0.00,,,0.00,0,WeatherCatV1.10B1784,2013-01-13 14:30:00,
2013-01-13 06:35:00,10.0,-0.4,30.37,WNW,292,8.0,11.0,62,0.00,,,0.00,0,WeatherCatV1.10B1784,2013-01-13 14:35:00,
2013-01-13 06:40:00,10.0,-0.4,30.37,NW,315,7.0,9.0,62,0.00,,,0.00,0,WeatherCatV1.10B1784,2013-01-13 14:40:00,
2013-01-13 06:45:00,9.9,-0.5,30.37,WNW,292,6.0,7.0,62,0.00,,,0.00,0,WeatherCatV1.10B1784,2013-01-13 14:45:00,
2013-01-13 06:50:00,9.9,-0.1,30.37,WNW,292,6.0,9.0,63,0.00,,,0.00,0,WeatherCatV1.10B1784,2013-01-13 14:50:00,
2013-01-13 06:55:00,9.9,0.5,30.37,WNW,292,5.0,6.0,65,0.00,,,0.00,0,WeatherCatV1.10B1784,2013-01-13 14:55:00,
2013-01-13 07:00:00,9.9,0.2,30.37,WNW,292,4.0,5.0,64,0.00,,,0.00,0,WeatherCatV1.10B1784,2013-01-13 15:00:00,
2013-01-13 07:05:00,9.7,0.0,30.37,WNW,292,5.0,6.0,64,0.00,,,0.00,0,WeatherCatV1.10B1784,2013-01-13 15:05:00,
2013-01-13 07:10:00,9.5,-0.2,30.37,WNW,292,4.0,6.0,64,0.00,,,0.00,0,WeatherCatV1.10B1784,2013-01-13 15:10:00,
2013-01-13 07:15:00,9.5,-0.2,30.39,WNW,292,7.0,10.0,64,0.00,,,0.00,0,WeatherCatV1.10B1784,2013-01-13 15:15:00,
2013-01-13 07:20:00,9.5,-0.2,30.39,WNW,292,5.0,6.0,64,0.00,,,0.00,5,WeatherCatV1.10B1784,2013-01-13 15:20:00,
2013-01-13 07:25:00,9.3,-1.0,30.39,WNW,292,6.0,7.0,62,0.00,,,0.00,5,WeatherCatV1.10B1784,2013-01-13 15:25:00,
2013-01-13 07:30:00,9.5,-1.2,30.39,WNW,292,5.0,8.0,61,0.00,,,0.00,7,WeatherCatV1.10B1784,2013-01-13 15:30:00,
2013-01-13 07:35:00,9.5,-2.3,30.39,WNW,292,6.0,7.0,58,0.00,,,0.00,9,WeatherCatV1.10B1784,2013-01-13 15:35:00,
2013-01-13 07:40:00,9.5,-2.6,30.39,WNW,292,5.0,6.0,57,0.00,,,0.00,11,WeatherCatV1.10B1784,2013-01-13 15:40:00,
2013-01-13 07:45:00,9.5,-3.4,30.39,WNW,292,3.0,4.0,55,0.00,,,0.00,12,WeatherCatV1.10B1784,2013-01-13 15:45:00,
2013-01-13 07:50:00,9.5,-4.5,30.39,WNW,292,4.0,5.0,52,0.00,,,0.00,14,WeatherCatV1.10B1784,2013-01-13 15:50:00,
2013-01-13 07:55:00,9.5,-4.1,30.39,WNW,292,5.0,6.0,53,0.00,,,0.00,16,WeatherCatV1.10B1784,2013-01-13 15:55:00,
2013-01-13 08:00:00,9.5,-3.4,30.39,WNW,292,5.0,6.0,55,0.00,,,0.00,26,WeatherCatV1.10B1784,2013-01-13 16:00:00,
2013-01-13 08:05:00,9.3,-1.7,30.40,West,270,5.0,8.0,60,0.00,,,0.00,40,WeatherCatV1.10B1784,2013-01-13 16:05:00,
2013-01-13 08:10:00,9.3,0.0,30.40,WNW,292,5.0,6.0,65,0.00,,,0.00,72,WeatherCatV1.10B1784,2013-01-13 16:10:00,
2013-01-13 08:15:00,9.5,0.5,30.40,WNW,292,5.0,6.0,66,0.00,,,0.00,86,WeatherCatV1.10B1784,2013-01-13 16:15:00,
2013-01-13 08:20:00,9.7,1.0,30.41,WNW,292,5.0,6.0,67,0.00,,,0.00,102,WeatherCatV1.10B1784,2013-01-13 16:20:00,
2013-01-13 08:34:00,9.9,1.8,30.41,WNW,292,5.0,6.0,69,0.00,,,0.00,47,WeatherCatV1.10B1784,2013-01-13 16:34:00,
2013-01-13 08:36:00,10.7,3.5,30.41,West,279,11.0,11.0,72,0.00,,,0.00,30,WeatherCatV1.10B1784,2013-01-13 16:36:00,
2013-01-13 08:38:00,10.9,3.7,30.41,West,278,8.0,11.0,72,0.00,,,0.00,83,WeatherCatV1.10B1784,2013-01-13 16:38:00,
2013-01-13 08:44:00,11.2,4.0,30.41,NW,305,6.0,9.0,72,0.00,,,0.00,37,WeatherCatV1.10B1784,2013-01-13 16:44:00,
2013-01-13 08:46:00,11.2,4.0,30.41,WNW,283,5.0,7.0,72,0.00,,,0.00,42,WeatherCatV1.10B1784,2013-01-13 16:46:00,
2013-01-13 08:52:00,11.6,4.7,30.41,WNW,283,4.0,6.0,73,0.00,,,0.00,35,WeatherCatV1.10B1784,2013-01-13 16:52:00,
2013-01-13 08:55:00,11.7,4.7,30.41,WNW,284,5.0,7.0,73,0.00,,,0.00,76,WeatherCatV1.10B1784,2013-01-13 16:55:00,
2013-01-13 08:58:00,11.9,5.2,30.41,West,279,3.0,5.0,74,0.00,,,0.00,213,WeatherCatV1.10B1784,2013-01-13 16:58:00,
2013-01-13 09:00:00,11.9,5.2,30.39,WNW,283,4.0,4.0,74,0.00,,,0.00,216,WeatherCatV1.10B1784,2013-01-13 17:00:00,
2013-01-13 09:05:00,12.1,5.1,30.39,WNW,292,4.0,5.0,73,0.00,,,0.00,225,WeatherCatV1.10B1784,2013-01-13 17:05:00,
2013-01-13 09:10:00,12.3,5.0,30.39,WNW,292,3.0,5.0,72,0.00,,,0.00,239,WeatherCatV1.10B1784,2013-01-13 17:10:00,
2013-01-13 09:15:00,12.6,4.7,30.39,WNW,292,1.0,2.0,70,0.00,,,0.00,246,WeatherCatV1.10B1784,2013-01-13 17:15:00,
2013-01-13 09:20:00,12.9,3.4,30.39,WNW,292,2.0,4.0,65,0.00,,,0.00,265,WeatherCatV1.10B1784,2013-01-13 17:20:00,
2013-01-13 09:25:00,13.3,1.3,30.39,East,90,0.0,2.0,58,0.00,,,0.00,277,WeatherCatV1.10B1784,2013-01-13 17:25:00,
2013-01-13 09:30:00,13.8,2.2,30.39,East,90,0.0,0.0,59,0.00,,,0.00,290,WeatherCatV1.10B1784,2013-01-13 17:30:00,
2013-01-13 09:35:00,14.3,1.9,30.40,East,90,0.0,0.0,57,0.00,,,0.00,302,WeatherCatV1.10B1784,2013-01-13 17:35:00,
2013-01-13 09:40:00,14.0,0.1,30.40,East,90,2.0,3.0,53,0.00,,,0.00,316,WeatherCatV1.10B1784,2013-01-13 17:40:00,
2013-01-13 09:45:00,14.1,2.1,30.40,East,90,3.0,4.0,58,0.00,,,0.00,330,WeatherCatV1.10B1784,2013-01-13 17:45:00,
2013-01-13 09:50:00,14.8,3.1,30.40,WNW,292,4.0,5.0,59,0.00,,,0.00,330,WeatherCatV1.10B1784,2013-01-13 17:50:00,
2013-01-13 09:55:00,15.2,3.1,30.40,WNW,292,2.0,3.0,58,0.00,,,0.00,348,WeatherCatV1.10B1784,2013-01-13 17:55:00,
2013-01-13 10:00:00,15.4,3.3,30.38,WNW,292,3.0,5.0,58,0.00,,,0.00,355,WeatherCatV1.10B1784,2013-01-13 18:00:00,
2013-01-13 10:05:00,15.6,2.0,30.38,NW,315,5.0,6.0,54,0.00,,,0.00,366,WeatherCatV1.10B1784,2013-01-13 18:05:00,
2013-01-13 10:10:00,15.7,0.8,30.38,WNW,292,4.0,5.0,51,0.00,,,0.00,378,WeatherCatV1.10B1784,2013-01-13 18:10:00,
2013-01-13 10:15:00,15.6,-0.1,30.38,NW,315,3.0,4.0,49,0.00,,,0.00,383,WeatherCatV1.10B1784,2013-01-13 18:15:00,
2013-01-13 10:20:00,14.8,0.4,30.38,NE,45,1.0,3.0,52,0.00,,,0.00,387,WeatherCatV1.10B1784,2013-01-13 18:20:00,
2013-01-13 10:25:00,14.8,2.0,30.38,ESE,112,4.0,7.0,56,0.00,,,0.00,418,WeatherCatV1.10B1784,2013-01-13 18:25:00,
2013-01-13 10:30:00,14.9,2.8,30.38,ESE,112,1.0,4.0,58,0.00,,,0.00,425,WeatherCatV1.10B1784,2013-01-13 18:30:00,
2013-01-13 10:35:00,14.8,2.0,30.41,ENE,68,3.0,7.0,56,0.00,,,0.00,435,WeatherCatV1.10B1784,2013-01-13 18:35:00,
2013-01-13 10:40:00,14.6,2.2,30.41,East,90,1.0,2.0,57,0.00,,,0.00,441,WeatherCatV1.10B1784,2013-01-13 18:40:00,
2013-01-13 10:45:00,14.9,2.8,30.41,East,90,2.0,3.0,58,0.00,,,0.00,450,WeatherCatV1.10B1784,2013-01-13 18:45:00,
2013-01-13 10:50:00,15.2,2.4,30.40,ESE,112,4.0,6.0,56,0.00,,,0.00,454,WeatherCatV1.10B1784,2013-01-13 18:50:00,
2013-01-13 10:55:00,15.2,2.7,30.40,ESE,112,3.0,6.0,57,0.00,,,0.00,455,WeatherCatV1.10B1784,2013-01-13 18:55:00,
2013-01-13 11:00:00,15.6,3.1,30.40,ESE,112,2.0,4.0,57,0.00,,,0.00,469,WeatherCatV1.10B1784,2013-01-13 19:00:00,
2013-01-13 11:05:00,15.9,2.6,30.38,ESE,112,3.0,5.0,55,0.00,,,0.00,481,WeatherCatV1.10B1784,2013-01-13 19:05:00,
2013-01-13 11:10:00,15.2,2.0,30.38,ESE,112,5.0,6.0,55,0.00,,,0.00,476,WeatherCatV1.10B1784,2013-01-13 19:10:00,
2013-01-13 11:15:00,14.4,2.0,30.38,SE,135,9.0,11.0,57,0.00,,,0.00,438,WeatherCatV1.10B1784,2013-01-13 19:15:00,
2013-01-13 11:20:00,14.3,2.6,30.40,SE,135,9.0,14.0,59,0.00,,,0.00,399,WeatherCatV1.10B1784,2013-01-13 19:20:00,
2013-01-13 11:25:00,13.8,0.7,30.40,SSE,158,7.0,14.0,55,0.00,,,0.00,452,WeatherCatV1.10B1784,2013-01-13 19:25:00,
2013-01-13 11:30:00,13.3,1.3,30.40,ESE,112,6.0,10.0,58,0.00,,,0.00,438,WeatherCatV1.10B1784,2013-01-13 19:30:00,
2013-01-13 11:35:00,13.3,0.6,30.40,ESE,112,4.0,7.0,56,0.00,,,0.00,438,WeatherCatV1.10B1784,2013-01-13 19:35:00,
2013-01-13 11:40:00,13.3,0.2,30.40,ESE,112,6.0,10.0,55,0.00,,,0.00,487,WeatherCatV1.10B1784,2013-01-13 19:40:00,
2013-01-13 11:45:00,13.8,1.0,30.39,SE,135,6.0,11.0,56,0.00,,,0.00,458,WeatherCatV1.10B1784,2013-01-13 19:45:00,
2013-01-13 11:50:00,14.0,0.8,30.39,ESE,112,5.0,9.0,55,0.00,,,0.00,459,WeatherCatV1.10B1784,2013-01-13 19:50:00,
2013-01-13 11:55:00,14.3,-0.1,30.39,ESE,112,7.0,12.0,52,0.00,,,0.00,504,WeatherCatV1.10B1784,2013-01-13 19:55:00,
2013-01-13 12:00:00,14.4,0.4,30.39,ESE,112,8.0,13.0,53,0.00,,,0.00,478,WeatherCatV1.10B1784,2013-01-13 20:00:00,
2013-01-13 12:05:00,14.0,0.8,30.40,SE,135,9.0,10.0,55,0.00,,,0.00,512,WeatherCatV1.10B1784,2013-01-13 20:05:00,
2013-01-13 12:10:00,13.6,0.9,30.40,ESE,112,8.0,12.0,56,0.00,,,0.00,413,WeatherCatV1.10B1784,2013-01-13 20:10:00,
2013-01-13 12:15:00,13.5,1.1,30.40,SSE,158,7.0,10.0,57,0.00,,,0.00,541,WeatherCatV1.10B1784,2013-01-13 20:15:00,
2013-01-13 12:20:00,12.9,0.9,30.38,ESE,112,7.0,10.0,58,0.00,,,0.00,411,WeatherCatV1.10B1784,2013-01-13 20:20:00,
2013-01-13 12:25:00,12.8,1.6,30.38,ESE,112,4.0,9.0,60,0.00,,,0.00,524,WeatherCatV1.10B1784,2013-01-13 20:25:00,
2013-01-13 12:30:00,13.1,1.5,30.38,ESE,112,6.0,9.0,59,0.00,,,0.00,508,WeatherCatV1.10B1784,2013-01-13 20:30:00,
2013-01-13 12:35:00,13.3,1.7,30.37,ESE,112,6.0,9.0,59,0.00,,,0.00,517,WeatherCatV1.10B1784,2013-01-13 20:35:00,
2013-01-13 12:40:00,13.5,1.1,30.37,SE,135,9.0,13.0,57,0.00,,,0.00,510,WeatherCatV1.10B1784,2013-01-13 20:40:00,
2013-01-13 12:45:00,13.5,1.5,30.37,ESE,112,8.0,11.0,58,0.00,,,0.00,515,WeatherCatV1.10B1784,2013-01-13 20:45:00,
2013-01-13 12:50:00,13.3,0.9,30.38,ESE,112,5.0,10.0,57,0.00,,,0.00,515,WeatherCatV1.10B1784,2013-01-13 20:50:00,
2013-01-13 12:55:00,13.5,1.1,30.38,SE,135,7.0,10.0,57,0.00,,,0.00,494,WeatherCatV1.10B1784,2013-01-13 20:55:00,
2013-01-13 13:00:00,14.0,1.2,30.38,ESE,112,6.0,12.0,56,0.00,,,0.00,503,WeatherCatV1.10B1784,2013-01-13 21:00:00,
2013-01-13 13:05:00,14.4,0.4,30.36,SE,135,7.0,11.0,53,0.00,,,0.00,503,WeatherCatV1.10B1784,2013-01-13 21:05:00,
2013-01-13 13:10:00,15.1,0.3,30.36,ESE,112,9.0,12.0,51,0.00,,,0.00,501,WeatherCatV1.10B1784,2013-01-13 21:10:00,
2013-01-13 13:15:00,14.9,0.1,30.36,SE,135,7.0,11.0,51,0.00,,,0.00,496,WeatherCatV1.10B1784,2013-01-13 21:15:00,
2013-01-13 13:20:00,14.8,0.8,30.36,ESE,112,3.0,7.0,53,0.00,,,0.00,490,WeatherCatV1.10B1784,2013-01-13 21:20:00,
2013-01-13 13:25:00,15.2,0.8,30.36,SSE,158,8.0,15.0,52,0.00,,,0.00,489,WeatherCatV1.10B1784,2013-01-13 21:25:00,
2013-01-13 13:30:00,15.4,0.5,30.36,ESE,112,7.0,10.0,51,0.00,,,0.00,485,WeatherCatV1.10B1784,2013-01-13 21:30:00,
2013-01-13 13:35:00,14.8,2.0,30.36,SE,135,10.0,13.0,56,0.00,,,0.00,478,WeatherCatV1.10B1784,2013-01-13 21:35:00,
2013-01-13 13:40:00,14.3,1.1,30.36,ESE,112,13.0,15.0,55,0.00,,,0.00,471,WeatherCatV1.10B1784,2013-01-13 21:40:00,
2013-01-13 13:45:00,13.6,-0.3,30.36,ESE,112,9.0,14.0,53,0.00,,,0.00,464,WeatherCatV1.10B1784,2013-01-13 21:45:00,
2013-01-13 13:50:00,13.1,-0.4,30.36,ESE,112,9.0,12.0,54,0.00,,,0.00,457,WeatherCatV1.10B1784,2013-01-13 21:50:00,
2013-01-13 13:55:00,13.1,0.0,30.36,SE,135,5.0,10.0,55,0.00,,,0.00,451,WeatherCatV1.10B1784,2013-01-13 21:55:00,
2013-01-13 14:00:00,13.3,-1.0,30.36,SSE,158,3.0,12.0,52,0.00,,,0.00,443,WeatherCatV1.10B1784,2013-01-13 22:00:00,
2013-01-13 14:05:00,13.5,-1.2,30.38,ESE,112,4.0,6.0,51,0.00,,,0.00,436,WeatherCatV1.10B1784,2013-01-13 22:05:00,
2013-01-13 14:10:00,13.6,-2.4,30.38,SE,135,8.0,13.0,48,0.00,,,0.00,429,WeatherCatV1.10B1784,2013-01-13 22:10:00,
2013-01-13 14:15:00,13.8,-6.0,30.38,SE,135,5.0,11.0,40,0.00,,,0.00,420,WeatherCatV1.10B1784,2013-01-13 22:15:00,
2013-01-13 14:20:00,13.8,-3.6,30.35,SE,135,7.0,10.0,45,0.00,,,0.00,411,WeatherCatV1.10B1784,2013-01-13 22:20:00,
2013-01-13 14:25:00,13.8,-2.7,30.35,SE,135,9.0,11.0,47,0.00,,,0.00,402,WeatherCatV1.10B1784,2013-01-13 22:25:00,
2013-01-13 14:30:00,13.3,-4.0,30.35,ESE,112,10.0,14.0,45,0.00,,,0.00,394,WeatherCatV1.10B1784,2013-01-13 22:30:00,
2013-01-13 14:35:00,12.6,-1.6,30.37,SE,135,8.0,10.0,52,0.00,,,0.00,381,WeatherCatV1.10B1784,2013-01-13 22:35:00,
2013-01-13 14:40:00,12.3,-1.1,30.37,SE,135,8.0,10.0,54,0.00,,,0.00,371,WeatherCatV1.10B1784,2013-01-13 22:40:00,
2013-01-13 14:45:00,11.9,-0.7,30.37,ESE,112,9.0,13.0,56,0.00,,,0.00,339,WeatherCatV1.10B1784,2013-01-13 22:45:00,
2013-01-13 14:50:00,11.6,-1.0,30.38,ESE,112,6.0,10.0,56,0.00,,,0.00,42,WeatherCatV1.10B1784,2013-01-13 22:50:00,
2013-01-13 14:55:00,11.1,-1.9,30.38,SE,135,8.0,10.0,55,0.00,,,0.00,37,WeatherCatV1.10B1784,2013-01-13 22:55:00,
2013-01-13 15:00:00,10.9,-2.1,30.38,SSE,158,10.0,13.0,55,0.00,,,0.00,32,WeatherCatV1.10B1784,2013-01-13 23:00:00,
2013-01-13 15:05:00,10.4,-2.1,30.40,SE,135,8.0,10.0,56,0.00,,,0.00,25,WeatherCatV1.10B1784,2013-01-13 23:05:00,
2013-01-13 15:10:00,10.2,-2.3,30.40,ESE,112,4.0,6.0,56,0.00,,,0.00,39,WeatherCatV1.10B1784,2013-01-13 23:10:00,
2013-01-13 15:15:00,10.2,-3.5,30.40,ESE,112,8.0,13.0,53,0.00,,,0.00,28,WeatherCatV1.10B1784,2013-01-13 23:15:00,
2013-01-13 15:20:00,10.4,-4.5,30.42,SE,135,10.0,15.0,50,0.00,,,0.00,23,WeatherCatV1.10B1784,2013-01-13 23:20:00,
2013-01-13 15:25:00,10.2,-4.7,30.42,ESE,112,6.0,13.0,50,0.00,,,0.00,23,WeatherCatV1.10B1784,2013-01-13 23:25:00,
2013-01-13 15:30:00,10.0,-6.6,30.42,SSE,158,13.0,17.0,46,0.00,,,0.00,25,WeatherCatV1.10B1784,2013-01-13 23:30:00,
2013-01-13 15:35:00,9.9,-5.8,30.43,SSE,158,12.0,17.0,48,0.00,,,0.00,32,WeatherCatV1.10B1784,2013-01-13 23:35:00,
2013-01-13 15:40:00,9.9,-5.0,30.43,SSE,158,5.0,7.0,50,0.00,,,0.00,23,WeatherCatV1.10B1784,2013-01-13 23:40:00,
2013-01-13 15:45:00,9.7,-5.2,30.42,SSE,158,8.0,13.0,50,0.00,,,0.00,24,WeatherCatV1.10B1784,2013-01-13 23:45:00,
2013-01-13 15:50:00,9.5,-5.3,30.42,ESE,112,7.0,11.0,50,0.00,,,0.00,33,WeatherCatV1.10B1784,2013-01-13 23:50:00,
2013-01-13 15:55:00,9.3,-5.5,30.42,SE,135,5.0,9.0,50,0.00,,,0.00,19,WeatherCatV1.10B1784,2013-01-13 23:55:00,
2013-01-13 16:00:00,9.2,-5.6,30.44,ESE,112,3.0,5.0,50,0.00,,,0.00,23,WeatherCatV1.10B1784,2013-01-14 00:00:00,
2013-01-13 16:05:00,9.2,-5.6,30.44,ESE,112,10.0,15.0,50,0.00,,,0.00,19,WeatherCatV1.10B1784,2013-01-14 00:05:00,
2013-01-13 16:10:00,9.0,-4.2,30.44,SSE,158,11.0,17.0,54,0.00,,,0.00,18,WeatherCatV1.10B1784,2013-01-14 00:10:00,
2013-01-13 16:15:00,8.6,-4.2,30.42,ESE,112,12.0,19.0,55,0.00,,,0.00,18,WeatherCatV1.10B1784,2013-01-14 00:15:00,
2013-01-13 16:20:00,8.4,-2.9,30.42,SE,135,14.0,22.0,59,0.00,,,0.00,16,WeatherCatV1.10B1784,2013-01-14 00:20:00,
2013-01-13 16:25:00,8.1,-2.5,30.42,ESE,112,13.0,21.0,61,0.00,,,0.00,16,WeatherCatV1.10B1784,2013-01-14 00:25:00,
2013-01-13 16:30:00,7.9,-2.4,30.43,ESE,112,10.0,18.0,62,0.00,,,0.00,14,WeatherCatV1.10B1784,2013-01-14 00:30:00,
2013-01-13 16:35:00,7.7,-1.9,30.43,SE,135,8.0,12.0,64,0.00,,,0.00,14,WeatherCatV1.10B1784,2013-01-14 00:35:00,
2013-01-13 16:40:00,7.7,-1.2,30.43,SE,135,8.0,17.0,66,0.00,,,0.00,12,WeatherCatV1.10B1784,2013-01-14 00:40:00,
2013-01-13 16:45:00,7.6,-0.1,30.43,ESE,112,6.0,13.0,70,0.00,,,0.00,18,WeatherCatV1.10B1784,2013-01-14 00:45:00,
2013-01-13 16:50:00,7.4,0.3,30.43,ESE,112,12.0,19.0,72,0.00,,,0.00,10,WeatherCatV1.10B1784,2013-01-14 00:50:00,
2013-01-13 16:55:00,7.4,0.6,30.43,SE,135,2.0,9.0,73,0.00,,,0.00,7,WeatherCatV1.10B1784,2013-01-14 00:55:00,
2013-01-13 17:00:00,7.2,0.7,30.43,ESE,112,7.0,12.0,74,0.00,,,0.00,5,WeatherCatV1.10B1784,2013-01-14 01:00:00,
2013-01-13 17:05:00,7.0,0.8,30.43,ESE,112,8.0,14.0,75,0.00,,,0.00,0,WeatherCatV1.10B1784,2013-01-14 01:05:00,
2013-01-13 17:10:00,7.0,0.8,30.43,SE,135,8.0,16.0,75,0.00,,,0.00,0,WeatherCatV1.10B1784,2013-01-14 01:10:00,
2013-01-13 17:15:00,6.9,1.0,30.43,SE,135,5.0,17.0,76,0.00,,,0.00,0,WeatherCatV1.10B1784,2013-01-14 01:15:00,
2013-01-13 17:20:00,6.7,0.8,30.42,ESE,112,6.0,18.0,76,0.00,,,0.00,0,WeatherCatV1.10B1784,2013-01-14 01:20:00,
2013-01-13 17:25:00,6.3,0.7,30.42,ENE,68,5.0,11.0,77,0.00,,,0.00,0,WeatherCatV1.10B1784,2013-01-14 01:25:00,
2013-01-13 17:30:00,6.3,0.7,30.42,SSE,158,5.0,15.0,77,0.00,,,0.00,0,WeatherCatV1.10B1784,2013-01-14 01:30:00,
2013-01-13 17:35:00,6.1,0.7,30.42,East,90,13.0,19.0,78,0.00,,,0.00,0,WeatherCatV1.10B1784,2013-01-14 01:35:00,
2013-01-13 17:40:00,6.1,0.7,30.42,SE,135,9.0,16.0,78,0.00,,,0.00,0,WeatherCatV1.10B1784,2013-01-14 01:40:00,
2013-01-13 17:45:00,6.3,0.7,30.42,SSE,158,10.0,18.0,77,0.00,,,0.00,0,WeatherCatV1.10B1784,2013-01-14 01:45:00,
2013-01-13 17:50:00,6.3,0.7,30.42,ESE,112,12.0,19.0,77,0.00,,,0.00,0,WeatherCatV1.10B1784,2013-01-14 01:50:00,
2013-01-13 17:55:00,6.3,0.9,30.42,ESE,112,11.0,17.0,78,0.00,,,0.00,0,WeatherCatV1.10B1784,2013-01-14 01:55:00,
2013-01-13 18:00:00,6.3,0.9,30.43,ESE,112,9.0,16.0,78,0.00,,,0.00,0,WeatherCatV1.10B1784,2013-01-14 02:00:00,
2013-01-13 18:05:00,6.3,0.9,30.43,ESE,112,10.0,19.0,78,0.00,,,0.00,0,WeatherCatV1.10B1784,2013-01-14 02:05:00,
2013-01-13 18:10:00,6.1,0.7,30.43,ESE,112,10.0,15.0,78,0.00,,,0.00,0,WeatherCatV1.10B1784,2013-01-14 02:10:00,
2013-01-13 18:15:00,6.0,0.6,30.43,ESE,112,12.0,26.0,78,0.00,,,0.00,0,WeatherCatV1.10B1784,2013-01-14 02:15:00,
2013-01-13 18:20:00,6.0,0.6,30.43,SE,135,11.0,20.0,78,0.00,,,0.00,0,WeatherCatV1.10B1784,2013-01-14 02:20:00,
2013-01-13 18:25:00,6.0,0.6,30.43,ESE,112,11.0,19.0,78,0.00,,,0.00,0,WeatherCatV1.10B1784,2013-01-14 02:25:00,
2013-01-13 18:30:00,6.0,0.6,30.43,ESE,112,11.0,21.0,78,0.00,,,0.00,0,WeatherCatV1.10B1784,2013-01-14 02:30:00,
2013-01-13 18:35:00,5.6,0.2,30.43,ESE,112,12.0,20.0,78,0.00,,,0.00,0,WeatherCatV1.10B1784,2013-01-14 02:35:00,
2013-01-13 18:40:00,5.4,0.3,30.43,ESE,112,11.0,19.0,79,0.00,,,0.00,0,WeatherCatV1.10B1784,2013-01-14 02:40:00,
2013-01-13 18:45:00,5.2,0.1,30.43,ESE,112,11.0,19.0,79,0.00,,,0.00,0,WeatherCatV1.10B1784,2013-01-14 02:45:00,
2013-01-13 18:50:00,5.2,0.1,30.45,ESE,112,11.0,16.0,79,0.00,,,0.00,0,WeatherCatV1.10B1784,2013-01-14 02:50:00,
2013-01-13 18:55:00,5.4,0.3,30.45,ESE,112,13.0,18.0,79,0.00,,,0.00,0,WeatherCatV1.10B1784,2013-01-14 02:55:00,
2013-01-13 19:00:00,5.2,0.1,30.45,SE,135,12.0,20.0,79,0.00,,,0.00,0,WeatherCatV1.10B1784,2013-01-14 03:00:00,
2013-01-13 19:05:00,5.2,0.1,30.45,ESE,112,11.0,20.0,79,0.00,,,0.00,0,WeatherCatV1.10B1784,2013-01-14 03:05:00,
2013-01-13 19:10:00,5.2,0.1,30.45,ESE,112,11.0,17.0,79,0.00,,,0.00,0,WeatherCatV1.10B1784,2013-01-14 03:10:00,
2013-01-13 19:15:00,5.0,-0.1,30.45,ESE,112,13.0,21.0,79,0.00,,,0.00,0,WeatherCatV1.10B1784,2013-01-14 03:15:00,
2013-01-13 19:20:00,5.0,-0.1,30.47,ESE,112,10.0,16.0,79,0.00,,,0.00,0,WeatherCatV1.10B1784,2013-01-14 03:20:00,
2013-01-13 19:25:00,5.0,0.2,30.47,ESE,112,11.0,15.0,80,0.00,,,0.00,0,WeatherCatV1.10B1784,2013-01-14 03:25:00,
2013-01-13 19:30:00,5.0,0.2,30.47,ESE,112,12.0,20.0,80,0.00,,,0.00,0,WeatherCatV1.10B1784,2013-01-14 03:30:00,
2013-01-13 19:35:00,5.0,0.2,30.47,SE,135,9.0,15.0,80,0.00,,,0.00,0,WeatherCatV1.10B1784,2013-01-14 03:35:00,
2013-01-13 19:40:00,4.8,0.0,30.47,ESE,112,4.0,10.0,80,0.00,,,0.00,0,WeatherCatV1.10B1784,2013-01-14 03:40:00,
2013-01-13 19:45:00,4.8,0.0,30.47,SE,135,6.0,12.0,80,0.00,,,0.00,0,WeatherCatV1.10B1784,2013-01-14 03:45:00,
2013-01-13 19:50:00,4.7,-0.1,30.47,ESE,112,6.0,12.0,80,0.00,,,0.00,0,WeatherCatV1.10B1784,2013-01-14 03:50:00,
2013-01-13 19:55:00,4.7,-0.1,30.47,SE,135,2.0,6.0,80,0.00,,,0.00,0,WeatherCatV1.10B1784,2013-01-14 03:55:00,
2013-01-13 20:00:00,4.5,-0.3,30.47,SSE,158,4.0,13.0,80,0.00,,,0.00,0,WeatherCatV1.10B1784,2013-01-14 04:00:00,
2013-01-13 20:05:00,4.5,-0.3,30.47,SE,135,7.0,17.0,80,0.00,,,0.00,0,WeatherCatV1.10B1784,2013-01-14 04:05:00,
2013-01-13 20:10:00,4.5,-0.3,30.47,SE,135,2.0,5.0,80,0.00,,,0.00,0,WeatherCatV1.10B1784,2013-01-14 04:10:00,
2013-01-13 20:15:00,4.5,-0.3,30.47,SE,135,5.0,13.0,80,0.00,,,0.00,0,WeatherCatV1.10B1784,2013-01-14 04:15:00,
2013-01-13 20:20:00,4.5,-0.3,30.46,SE,135,5.0,10.0,80,0.00,,,0.00,0,WeatherCatV1.10B1784,2013-01-14 04:20:00,
2013-01-13 20:25:00,4.1,-0.9,30.46,ESE,112,5.0,7.0,79,0.00,,,0.00,0,WeatherCatV1.10B1784,2013-01-14 04:25:00,
2013-01-13 20:30:00,3.9,-1.1,30.46,East,90,9.0,16.0,79,0.00,,,0.00,0,WeatherCatV1.10B1784,2013-01-14 04:30:00,
2013-01-13 20:35:00,3.7,-1.3,30.47,East,90,8.0,13.0,79,0.00,,,0.00,0,WeatherCatV1.10B1784,2013-01-14 04:35:00,
2013-01-13 20:40:00,3.5,-1.3,30.47,East,90,9.0,17.0,80,0.00,,,0.00,0,WeatherCatV1.10B1784,2013-01-14 04:40:00,
2013-01-13 20:45:00,3.7,-1.1,30.47,East,90,7.0,16.0,80,0.00,,,0.00,0,WeatherCatV1.10B1784,2013-01-14 04:45:00,
2013-01-13 20:50:00,3.5,-1.5,30.47,East,90,10.0,17.0,79,0.00,,,0.00,0,WeatherCatV1.10B1784,2013-01-14 04:50:00,
2013-01-13 20:55:00,3.4,-1.6,30.47,East,90,11.0,15.0,79,0.00,,,0.00,0,WeatherCatV1.10B1784,2013-01-14 04:55:00,
2013-01-13 21:00:00,3.4,-1.6,30.47,East,90,6.0,11.0,79,0.00,,,0.00,0,WeatherCatV1.10B1784,2013-01-14 05:00:00,
2013-01-13 21:05:00,3.4,-1.6,30.49,ESE,112,3.0,7.0,79,0.00,,,0.00,0,WeatherCatV1.10B1784,2013-01-14 05:05:00,
2013-01-13 21:10:00,3.4,-1.6,30.49,East,90,6.0,11.0,79,0.00,,,0.00,0,WeatherCatV1.10B1784,2013-01-14 05:10:00,
2013-01-13 21:15:00,3.5,-1.3,30.49,ESE,112,3.0,8.0,80,0.00,,,0.00,0,WeatherCatV1.10B1784,2013-01-14 05:15:00,
2013-01-13 21:20:00,3.7,-1.1,30.45,ESE,112,5.0,7.0,80,0.00,,,0.00,0,WeatherCatV1.10B1784,2013-01-14 05:20:00,
2013-01-13 21:25:00,3.9,-0.9,30.45,SE,135,4.0,6.0,80,0.00,,,0.00,0,WeatherCatV1.10B1784,2013-01-14 05:25:00,
2013-01-13 21:30:00,3.9,-0.9,30.45,SE,135,6.0,12.0,80,0.00,,,0.00,0,WeatherCatV1.10B1784,2013-01-14 05:30:00,
2013-01-13 21:35:00,3.9,-1.1,30.46,ESE,112,3.0,7.0,79,0.00,,,0.00,0,WeatherCatV1.10B1784,2013-01-14 05:35:00,
2013-01-13 21:40:00,3.7,-1.3,30.46,ENE,68,5.0,10.0,79,0.00,,,0.00,0,WeatherCatV1.10B1784,2013-01-14 05:40:00,
2013-01-13 21:45:00,3.5,-1.5,30.46,East,90,5.0,10.0,79,0.00,,,0.00,0,WeatherCatV1.10B1784,2013-01-14 05:45:00,
2013-01-13 21:50:00,3.7,-1.3,30.46,ESE,112,7.0,11.0,79,0.00,,,0.00,0,WeatherCatV1.10B1784,2013-01-14 05:50:00,
2013-01-13 21:55:00,3.7,-1.3,30.46,SSE,158,6.0,15.0,79,0.00,,,0.00,0,WeatherCatV1.10B1784,2013-01-14 05:55:00,
2013-01-13 22:00:00,3.5,-1.5,30.46,ESE,112,4.0,11.0,79,0.00,,,0.00,0,WeatherCatV1.10B1784,2013-01-14 06:00:00,
2013-01-13 22:05:00,3.4,-1.6,30.46,East,90,5.0,11.0,79,0.00,,,0.00,0,WeatherCatV1.10B1784,2013-01-14 06:05:00,
2013-01-13 22:10:00,3.2,-1.8,30.46,East,90,9.0,15.0,79,0.00,,,0.00,0,WeatherCatV1.10B1784,2013-01-14 06:10:00,
2013-01-13 22:15:00,3.2,-1.8,30.46,ESE,112,5.0,11.0,79,0.00,,,0.00,0,WeatherCatV1.10B1784,2013-01-14 06:15:00,
2013-01-13 22:20:00,3.2,-1.8,30.46,ESE,112,3.0,10.0,79,0.00,,,0.00,0,WeatherCatV1.10B1784,2013-01-14 06:20:00,
2013-01-13 22:25:00,3.4,-1.6,30.46,SSE,158,6.0,13.0,79,0.00,,,0.00,0,WeatherCatV1.10B1784,2013-01-14 06:25:00,
2013-01-13 22:30:00,3.4,-1.6,30.46,SE,135,7.0,13.0,79,0.00,,,0.00,0,WeatherCatV1.10B1784,2013-01-14 06:30:00,
2013-01-13 22:35:00,3.4,-1.6,30.46,SE,135,12.0,19.0,79,0.00,,,0.00,0,WeatherCatV1.10B1784,2013-01-14 06:35:00,
2013-01-13 22:40:00,3.4,-1.6,30.46,SE,135,10.0,16.0,79,0.00,,,0.00,0,WeatherCatV1.10B1784,2013-01-14 06:40:00,
2013-01-13 22:45:00,3.4,-1.6,30.47,ESE,112,9.0,16.0,79,0.00,,,0.00,0,WeatherCatV1.10B1784,2013-01-14 06:45:00,
2013-01-13 22:50:00,3.4,-1.6,30.47,ESE,112,11.0,18.0,79,0.00,,,0.00,0,WeatherCatV1.10B1784,2013-01-14 06:50:00,
2013-01-13 22:55:00,3.5,-1.5,30.47,ESE,112,11.0,17.0,79,0.00,,,0.00,0,WeatherCatV1.10B1784,2013-01-14 06:55:00,
2013-01-13 23:00:00,3.4,-1.6,30.47,ESE,112,10.0,14.0,79,0.00,,,0.00,0,WeatherCatV1.10B1784,2013-01-14 07:00:00,
2013-01-13 23:05:00,3.5,-1.5,30.47,ESE,112,10.0,16.0,79,0.00,,,0.00,0,WeatherCatV1.10B1784,2013-01-14 07:05:00,
2013-01-13 23:10:00,3.5,-1.5,30.47,ESE,112,8.0,13.0,79,0.00,,,0.00,0,WeatherCatV1.10B1784,2013-01-14 07:10:00,
2013-01-13 23:15:00,3.5,-1.5,30.47,ESE,112,11.0,17.0,79,0.00,,,0.00,0,WeatherCatV1.10B1784,2013-01-14 07:15:00,
2013-01-13 23:20:00,3.4,-1.6,30.47,ESE,112,13.0,20.0,79,0.00,,,0.00,0,WeatherCatV1.10B1784,2013-01-14 07:20:00,
2013-01-13 23:25:00,3.2,-1.8,30.47,ESE,112,10.0,16.0,79,0.00,,,0.00,0,WeatherCatV1.10B1784,2013-01-14 07:25:00,
2013-01-13 23:30:00,3.2,-1.8,30.47,ESE,112,14.0,21.0,79,0.00,,,0.00,0,WeatherCatV1.10B1784,2013-01-14 07:30:00,
2013-01-13 23:35:00,3.0,-2.0,30.49,ESE,112,10.0,17.0,79,0.00,,,0.00,0,WeatherCatV1.10B1784,2013-01-14 07:35:00,
2013-01-13 23:40:00,3.0,-2.0,30.49,ESE,112,10.0,15.0,79,0.00,,,0.00,0,WeatherCatV1.10B1784,2013-01-14 07:40:00,
2013-01-13 23:45:00,3.0,-2.0,30.49,ESE,112,10.0,18.0,79,0.00,,,0.00,0,WeatherCatV1.10B1784,2013-01-14 07:45:00,
2013-01-13 23:50:00,3.0,-2.0,30.49,ESE,112,10.0,17.0,79,0.00,,,0.00,0,WeatherCatV1.10B1784,2013-01-14 07:50:00,
2013-01-13 23:55:00,3.0,-2.0,30.49,ESE,112,13.0,20.0,79,0.00,,,0.00,0,WeatherCatV1.10B1784,2013-01-14 07:55:00,